sensor_id;sensor_type;location;lat;lon;timestamp;pressure;altitude;pressure_sealevel;temperature;humidity
19114;BME280;9689;51.052;13.772;2023-04-26T00:02:42;100240.56;;;6.16;62.49
19114;BME280;9689;51.052;13.772;2023-04-26T00:07:44;100244.91;;;6.17;63.07
19114;BME280;9689;51.052;13.772;2023-04-26T00:12:45;100258.69;;;6.15;62.91
19114;BME280;9689;51.052;13.772;2023-04-26T00:17:46;100251.81;;;6.12;62.28
19114;BME280;9689;51.052;13.772;2023-04-26T00:22:48;100268.22;;;6.01;63.17
19114;BME280;9689;51.052;13.772;2023-04-26T00:27:49;100261.31;;;6.01;63.55
19114;BME280;9689;51.052;13.772;2023-04-26T00:32:50;100259.56;;;5.89;64.50
19114;BME280;9689;51.052;13.772;2023-04-26T00:37:52;100262.19;;;5.83;65.06
19114;BME280;9689;51.052;13.772;2023-04-26T00:42:56;100269.06;;;5.86;64.80
19114;BME280;9689;51.052;13.772;2023-04-26T00:47:57;100269.94;;;5.85;65.02
19114;BME280;9689;51.052;13.772;2023-04-26T00:53:01;100288.03;;;5.71;64.87
19114;BME280;9689;51.052;13.772;2023-04-26T00:58:03;100279.41;;;5.63;66.00
19114;BME280;9689;51.052;13.772;2023-04-26T01:03:03;100276.00;;;5.56;66.30
19114;BME280;9689;51.052;13.772;2023-04-26T01:08:08;100276.84;;;5.45;65.96
19114;BME280;9689;51.052;13.772;2023-04-26T01:13:10;100289.78;;;5.43;66.85
19114;BME280;9689;51.052;13.772;2023-04-26T01:18:11;100282.84;;;5.30;66.91
19114;BME280;9689;51.052;13.772;2023-04-26T01:23:13;100283.72;;;5.18;67.54
19114;BME280;9689;51.052;13.772;2023-04-26T01:28:14;100286.28;;;5.20;67.54
19114;BME280;9689;51.052;13.772;2023-04-26T01:33:15;100288.00;;;5.18;67.27
19114;BME280;9689;51.052;13.772;2023-04-26T01:38:17;100299.19;;;5.09;67.75
19114;BME280;9689;51.052;13.772;2023-04-26T01:43:18;100288.88;;;5.06;67.48
19114;BME280;9689;51.052;13.772;2023-04-26T01:48:21;100295.75;;;5.07;67.20
19114;BME280;9689;51.052;13.772;2023-04-26T01:53:23;100291.44;;;5.01;67.05
19114;BME280;9689;51.052;13.772;2023-04-26T01:58:24;100291.44;;;5.00;67.02
19114;BME280;9689;51.052;13.772;2023-04-26T02:03:24;100300.88;;;4.95;67.67
19114;BME280;9689;51.052;13.772;2023-04-26T02:08:27;100305.19;;;4.97;67.72
19114;BME280;9689;51.052;13.772;2023-04-26T02:13:28;100312.94;;;4.97;66.93
19114;BME280;9689;51.052;13.772;2023-04-26T02:18:29;100302.59;;;4.90;67.15
19114;BME280;9689;51.052;13.772;2023-04-26T02:23:31;100308.63;;;4.93;66.93
19114;BME280;9689;51.052;13.772;2023-04-26T02:28:31;100309.50;;;4.97;67.09
19114;BME280;9689;51.052;13.772;2023-04-26T02:33:32;100309.47;;;4.91;67.67
19114;BME280;9689;51.052;13.772;2023-04-26T02:38:34;100316.38;;;4.90;67.63
19114;BME280;9689;51.052;13.772;2023-04-26T02:43:36;100305.19;;;4.91;67.38
19114;BME280;9689;51.052;13.772;2023-04-26T02:48:37;100300.88;;;4.90;67.59
19114;BME280;9689;51.052;13.772;2023-04-26T02:53:40;100305.19;;;4.91;67.28
19114;BME280;9689;51.052;13.772;2023-04-26T02:58:42;100303.44;;;4.82;67.46
19114;BME280;9689;51.052;13.772;2023-04-26T03:03:43;100307.72;;;4.80;67.69
19114;BME280;9689;51.052;13.772;2023-04-26T03:08:45;100305.97;;;4.76;68.14
19114;BME280;9689;51.052;13.772;2023-04-26T03:13:46;100318.06;;;4.79;68.11
19114;BME280;9689;51.052;13.772;2023-04-26T03:18:46;100312.81;;;4.68;68.29
19114;BME280;9689;51.052;13.772;2023-04-26T03:23:49;100324.03;;;4.73;68.90
19114;BME280;9689;51.052;13.772;2023-04-26T03:28:50;100323.16;;;4.62;69.13
19114;BME280;9689;51.052;13.772;2023-04-26T03:33:51;100326.56;;;4.53;69.55
19114;BME280;9689;51.052;13.772;2023-04-26T03:38:53;100330.81;;;4.47;69.00
19114;BME280;9689;51.052;13.772;2023-04-26T03:43:54;100334.22;;;4.41;69.24
19114;BME280;9689;51.052;13.772;2023-04-26T03:48:55;100339.31;;;4.32;69.94
19114;BME280;9689;51.052;13.772;2023-04-26T03:53:58;100343.63;;;4.33;70.68
19114;BME280;9689;51.052;13.772;2023-04-26T03:58:59;100340.16;;;4.27;69.79
19114;BME280;9689;51.052;13.772;2023-04-26T04:04:00;100353.88;;;4.21;69.85
19114;BME280;9689;51.052;13.772;2023-04-26T04:09:03;100350.44;;;4.22;70.41
19114;BME280;9689;51.052;13.772;2023-04-26T04:14:04;100346.94;;;4.17;70.50
19114;BME280;9689;51.052;13.772;2023-04-26T04:19:06;100353.00;;;4.19;70.30
19114;BME280;9689;51.052;13.772;2023-04-26T04:24:08;100363.34;;;4.23;70.02
19114;BME280;9689;51.052;13.772;2023-04-26T04:29:09;100363.34;;;4.22;69.81
19114;BME280;9689;51.052;13.772;2023-04-26T04:34:10;100372.75;;;4.17;70.08
19114;BME280;9689;51.052;13.772;2023-04-26T04:39:14;100365.91;;;4.22;70.26
19114;BME280;9689;51.052;13.772;2023-04-26T04:44:17;100372.72;;;4.14;69.41
19114;BME280;9689;51.052;13.772;2023-04-26T04:49:18;100375.31;;;4.12;69.15
19114;BME280;9689;51.052;13.772;2023-04-26T04:54:21;100375.38;;;4.20;68.90
19114;BME280;9689;51.052;13.772;2023-04-26T04:59:22;100383.09;;;4.21;68.83
19114;BME280;9689;51.052;13.772;2023-04-26T05:04:23;100378.88;;;4.33;68.17
19114;BME280;9689;51.052;13.772;2023-04-26T05:09:26;100387.41;;;4.24;68.60
19114;BME280;9689;51.052;13.772;2023-04-26T05:14:28;100399.56;;;4.37;68.67
19114;BME280;9689;51.052;13.772;2023-04-26T05:19:30;100399.59;;;4.43;67.51
19114;BME280;9689;51.052;13.772;2023-04-26T05:24:32;100406.44;;;4.43;67.65
19114;BME280;9689;51.052;13.772;2023-04-26T05:29:33;100402.22;;;4.51;67.38
19114;BME280;9689;51.052;13.772;2023-04-26T05:34:52;100396.28;;;4.61;67.03
19114;BME280;9689;51.052;13.772;2023-04-26T05:39:54;100414.38;;;4.70;66.44
19114;BME280;9689;51.052;13.772;2023-04-26T05:44:56;100411.00;;;4.80;65.99
19114;BME280;9689;51.052;13.772;2023-04-26T05:49:58;100421.38;;;4.91;66.15
19114;BME280;9689;51.052;13.772;2023-04-26T05:55:01;100419.69;;;5.01;65.56
19114;BME280;9689;51.052;13.772;2023-04-26T06:00:03;100429.19;;;5.09;65.58
19114;BME280;9689;51.052;13.772;2023-04-26T06:05:12;100427.59;;;5.41;65.57
19114;BME280;9689;51.052;13.772;2023-04-26T06:10:16;100419.84;;;5.45;64.54
19114;BME280;9689;51.052;13.772;2023-04-26T06:15:17;100415.53;;;5.43;64.62
19114;BME280;9689;51.052;13.772;2023-04-26T06:20:18;100427.56;;;5.31;63.96
19114;BME280;9689;51.052;13.772;2023-04-26T06:25:20;100436.25;;;5.52;62.82
19114;BME280;9689;51.052;13.772;2023-04-26T06:30:21;100435.38;;;5.56;62.85
19114;BME280;9689;51.052;13.772;2023-04-26T06:35:22;100431.91;;;5.46;62.60
19114;BME280;9689;51.052;13.772;2023-04-26T06:40:25;100432.00;;;5.86;62.94
19114;BME280;9689;51.052;13.772;2023-04-26T06:45:27;100430.31;;;6.12;61.81
19114;BME280;9689;51.052;13.772;2023-04-26T06:50:27;100428.59;;;6.16;60.94
19114;BME280;9689;51.052;13.772;2023-04-26T06:55:29;100440.66;;;6.06;60.67
19114;BME280;9689;51.052;13.772;2023-04-26T07:00:32;100453.59;;;6.14;59.56
19114;BME280;9689;51.052;13.772;2023-04-26T07:05:32;100448.44;;;6.21;58.75
19114;BME280;9689;51.052;13.772;2023-04-26T07:10:34;100452.72;;;6.33;55.95
19114;BME280;9689;51.052;13.772;2023-04-26T07:15:36;100448.41;;;6.05;57.16
19114;BME280;9689;51.052;13.772;2023-04-26T07:20:37;100450.16;;;6.10;58.29
19114;BME280;9689;51.052;13.772;2023-04-26T07:25:39;100454.47;;;6.33;57.05
19114;BME280;9689;51.052;13.772;2023-04-26T07:30:40;100447.50;;;6.77;55.99
19114;BME280;9689;51.052;13.772;2023-04-26T07:35:42;100454.41;;;6.77;54.11
19114;BME280;9689;51.052;13.772;2023-04-26T07:40:44;100451.78;;;6.95;52.71
19114;BME280;9689;51.052;13.772;2023-04-26T07:45:45;100453.50;;;6.96;52.67
19114;BME280;9689;51.052;13.772;2023-04-26T07:50:46;100448.31;;;6.93;52.46
19114;BME280;9689;51.052;13.772;2023-04-26T07:55:49;100428.31;;;7.27;52.08
19114;BME280;9689;51.052;13.772;2023-04-26T08:00:49;100450.09;;;6.87;53.18
19114;BME280;9689;51.052;13.772;2023-04-26T08:05:50;100440.56;;;6.86;52.18
19114;BME280;9689;51.052;13.772;2023-04-26T08:10:54;100445.69;;;7.15;50.70
19114;BME280;9689;51.052;13.772;2023-04-26T08:15:55;100448.94;;;7.56;49.88
19114;BME280;9689;51.052;13.772;2023-04-26T08:20:55;100444.69;;;7.43;50.42
19114;BME280;9689;51.052;13.772;2023-04-26T08:25:58;100454.13;;;7.58;49.72
19114;BME280;9689;51.052;13.772;2023-04-26T08:30:58;100448.06;;;7.57;49.57
19114;BME280;9689;51.052;13.772;2023-04-26T08:35:59;100456.09;;;7.04;48.48
19114;BME280;9689;51.052;13.772;2023-04-26T08:41:03;100468.22;;;6.88;49.18
19114;BME280;9689;51.052;13.772;2023-04-26T08:46:06;100454.38;;;6.97;50.29
19114;BME280;9689;51.052;13.772;2023-04-26T08:51:11;100450.00;;;7.13;50.05
19114;BME280;9689;51.052;13.772;2023-04-26T08:56:15;100445.38;;;7.73;49.30
19114;BME280;9689;51.052;13.772;2023-04-26T09:01:17;100433.19;;;7.85;46.53
19114;BME280;9689;51.052;13.772;2023-04-26T09:06:20;100440.84;;;8.02;45.28
19114;BME280;9689;51.052;13.772;2023-04-26T09:11:22;100438.16;;;8.17;42.68
19114;BME280;9689;51.052;13.772;2023-04-26T09:16:33;100443.59;;;7.84;44.80
19114;BME280;9689;51.052;13.772;2023-04-26T09:21:41;100449.59;;;7.87;45.14
19114;BME280;9689;51.052;13.772;2023-04-26T09:26:44;100448.56;;;8.11;45.00
19114;BME280;9689;51.052;13.772;2023-04-26T09:31:47;100456.41;;;8.05;45.46
19114;BME280;9689;51.052;13.772;2023-04-26T09:36:50;100449.56;;;7.95;44.72
19114;BME280;9689;51.052;13.772;2023-04-26T09:41:52;100444.03;;;8.41;41.72
19114;BME280;9689;51.052;13.772;2023-04-26T09:46:57;100442.81;;;8.78;40.78
19114;BME280;9689;51.052;13.772;2023-04-26T09:52:02;100447.72;;;8.09;43.91
19114;BME280;9689;51.052;13.772;2023-04-26T09:57:05;100448.59;;;8.05;42.15
19114;BME280;9689;51.052;13.772;2023-04-26T10:02:12;100449.94;;;8.57;41.21
19114;BME280;9689;51.052;13.772;2023-04-26T10:07:14;100434.63;;;9.12;39.29
19114;BME280;9689;51.052;13.772;2023-04-26T10:12:18;100431.81;;;9.27;38.92
19114;BME280;9689;51.052;13.772;2023-04-26T10:17:19;100440.81;;;9.00;37.58
19114;BME280;9689;51.052;13.772;2023-04-26T10:22:22;100435.38;;;8.40;40.06
19114;BME280;9689;51.052;13.772;2023-04-26T10:27:49;100447.50;;;8.34;42.05
19114;BME280;9689;51.052;13.772;2023-04-26T10:33:15;100449.41;;;8.15;43.46
19114;BME280;9689;51.052;13.772;2023-04-26T10:38:16;100449.00;;;8.65;42.71
19114;BME280;9689;51.052;13.772;2023-04-26T10:43:30;100440.03;;;8.95;39.42
19114;BME280;9689;51.052;13.772;2023-04-26T10:48:31;100434.06;;;9.55;38.79
19114;BME280;9689;51.052;13.772;2023-04-26T10:53:56;100440.06;;;9.60;39.39
19114;BME280;9689;51.052;13.772;2023-04-26T10:59:08;100430.09;;;9.26;40.34
19114;BME280;9689;51.052;13.772;2023-04-26T11:04:13;100445.75;;;9.23;39.95
19114;BME280;9689;51.052;13.772;2023-04-26T11:09:34;100430.38;;;9.06;39.48
19114;BME280;9689;51.052;13.772;2023-04-26T11:14:37;100429.53;;;9.03;40.69
19114;BME280;9689;51.052;13.772;2023-04-26T11:19:40;100448.50;;;9.13;40.54
19114;BME280;9689;51.052;13.772;2023-04-26T11:24:41;100432.06;;;9.09;39.37
19114;BME280;9689;51.052;13.772;2023-04-26T11:29:44;100424.28;;;9.07;39.03
19114;BME280;9689;51.052;13.772;2023-04-26T11:34:44;100434.44;;;9.27;38.90
19114;BME280;9689;51.052;13.772;2023-04-26T11:39:49;100427.53;;;9.86;38.30
19114;BME280;9689;51.052;13.772;2023-04-26T11:44:51;100439.13;;;9.66;37.80
19114;BME280;9689;51.052;13.772;2023-04-26T11:49:52;100432.44;;;9.46;37.10
19114;BME280;9689;51.052;13.772;2023-04-26T11:55:00;100438.28;;;8.94;39.31
19114;BME280;9689;51.052;13.772;2023-04-26T12:00:08;100449.81;;;8.70;40.42
19114;BME280;9689;51.052;13.772;2023-04-26T12:05:19;100463.72;;;8.65;42.17
19114;BME280;9689;51.052;13.772;2023-04-26T12:10:23;100470.56;;;8.73;42.19
19114;BME280;9689;51.052;13.772;2023-04-26T12:15:28;100459.63;;;9.24;40.92
19114;BME280;9689;51.052;13.772;2023-04-26T12:20:31;100457.91;;;9.86;39.75
19114;BME280;9689;51.052;13.772;2023-04-26T12:25:35;100448.66;;;10.27;38.31
19114;BME280;9689;51.052;13.772;2023-04-26T12:30:39;100460.34;;;9.97;37.34
19114;BME280;9689;51.052;13.772;2023-04-26T12:35:40;100461.50;;;9.79;38.67
19114;BME280;9689;51.052;13.772;2023-04-26T12:40:41;100452.53;;;10.00;37.98
19114;BME280;9689;51.052;13.772;2023-04-26T12:45:45;100447.56;;;9.81;38.48
19114;BME280;9689;51.052;13.772;2023-04-26T12:50:46;100446.28;;;10.10;37.84
19114;BME280;9689;51.052;13.772;2023-04-26T12:55:49;100440.25;;;9.48;38.24
19114;BME280;9689;51.052;13.772;2023-04-26T13:00:52;100451.81;;;9.88;38.49
19114;BME280;9689;51.052;13.772;2023-04-26T13:05:53;100430.81;;;9.41;39.73
19114;BME280;9689;51.052;13.772;2023-04-26T13:10:53;100435.94;;;9.44;40.71
19114;BME280;9689;51.052;13.772;2023-04-26T13:15:56;100446.44;;;9.98;40.10
19114;BME280;9689;51.052;13.772;2023-04-26T13:20:57;100441.81;;;9.59;37.55
19114;BME280;9689;51.052;13.772;2023-04-26T13:25:58;100451.16;;;9.74;37.41
19114;BME280;9689;51.052;13.772;2023-04-26T13:31:00;100445.06;;;9.75;37.80
19114;BME280;9689;51.052;13.772;2023-04-26T13:36:00;100437.13;;;9.84;38.23
19114;BME280;9689;51.052;13.772;2023-04-26T13:41:01;100436.00;;;10.55;37.40
19114;BME280;9689;51.052;13.772;2023-04-26T13:46:03;100449.16;;;10.47;38.96
19114;BME280;9689;51.052;13.772;2023-04-26T13:51:05;100463.06;;;9.89;38.03
19114;BME280;9689;51.052;13.772;2023-04-26T13:56:06;100440.19;;;10.11;38.67
19114;BME280;9689;51.052;13.772;2023-04-26T14:01:09;100450.16;;;9.83;39.21
19114;BME280;9689;51.052;13.772;2023-04-26T14:06:10;100441.97;;;10.09;37.80
19114;BME280;9689;51.052;13.772;2023-04-26T14:11:10;100441.84;;;10.16;37.26
19114;BME280;9689;51.052;13.772;2023-04-26T14:16:15;100461.84;;;10.67;36.03
19114;BME280;9689;51.052;13.772;2023-04-26T14:21:16;100463.72;;;10.60;37.25
19114;BME280;9689;51.052;13.772;2023-04-26T14:26:17;100454.97;;;10.07;38.39
19114;BME280;9689;51.052;13.772;2023-04-26T14:31:20;100460.16;;;10.10;39.35
19114;BME280;9689;51.052;13.772;2023-04-26T14:36:23;100457.13;;;9.82;38.99
19114;BME280;9689;51.052;13.772;2023-04-26T14:41:24;100465.75;;;9.84;38.55
19114;BME280;9689;51.052;13.772;2023-04-26T14:46:26;100468.56;;;9.69;37.74
19114;BME280;9689;51.052;13.772;2023-04-26T14:51:28;100459.16;;;9.60;37.66
19114;BME280;9689;51.052;13.772;2023-04-26T14:56:31;100458.09;;;9.74;37.99
19114;BME280;9689;51.052;13.772;2023-04-26T15:01:33;100464.09;;;9.79;38.28
19114;BME280;9689;51.052;13.772;2023-04-26T15:06:34;100459.97;;;10.21;38.23
19114;BME280;9689;51.052;13.772;2023-04-26T15:11:35;100462.34;;;10.38;38.87
19114;BME280;9689;51.052;13.772;2023-04-26T15:16:37;100456.53;;;10.22;39.01
19114;BME280;9689;51.052;13.772;2023-04-26T15:21:39;100453.31;;;10.03;38.71
19114;BME280;9689;51.052;13.772;2023-04-26T15:26:39;100454.47;;;9.85;38.02
19114;BME280;9689;51.052;13.772;2023-04-26T15:31:41;100465.09;;;9.69;39.02
19114;BME280;9689;51.052;13.772;2023-04-26T15:36:42;100454.88;;;9.55;39.81
19114;BME280;9689;51.052;13.772;2023-04-26T15:41:43;100459.47;;;9.36;39.82
19114;BME280;9689;51.052;13.772;2023-04-26T15:46:45;100469.06;;;9.29;39.88
19114;BME280;9689;51.052;13.772;2023-04-26T15:51:46;100466.59;;;9.22;39.76
19114;BME280;9689;51.052;13.772;2023-04-26T15:56:47;100477.81;;;9.24;39.62
19114;BME280;9689;51.052;13.772;2023-04-26T16:01:49;100477.66;;;9.36;39.11
19114;BME280;9689;51.052;13.772;2023-04-26T16:06:50;100472.56;;;9.28;39.41
19114;BME280;9689;51.052;13.772;2023-04-26T16:11:51;100464.94;;;9.15;40.22
19114;BME280;9689;51.052;13.772;2023-04-26T16:16:53;100462.28;;;9.18;40.35
19114;BME280;9689;51.052;13.772;2023-04-26T16:21:54;100458.59;;;9.39;40.54
19114;BME280;9689;51.052;13.772;2023-04-26T16:26:54;100464.94;;;9.12;37.73
19114;BME280;9689;51.052;13.772;2023-04-26T16:31:57;100465.97;;;8.98;39.48
19114;BME280;9689;51.052;13.772;2023-04-26T16:36:58;100469.63;;;8.81;40.01
19114;BME280;9689;51.052;13.772;2023-04-26T16:41:59;100465.28;;;8.83;40.23
19114;BME280;9689;51.052;13.772;2023-04-26T16:47:02;100468.78;;;8.77;40.19
19114;BME280;9689;51.052;13.772;2023-04-26T16:52:02;100478.31;;;8.80;40.44
19114;BME280;9689;51.052;13.772;2023-04-26T16:57:03;100474.81;;;8.82;40.43
19114;BME280;9689;51.052;13.772;2023-04-26T17:02:05;100480.91;;;8.76;41.29
19114;BME280;9689;51.052;13.772;2023-04-26T17:07:06;100487.09;;;8.66;40.89
19114;BME280;9689;51.052;13.772;2023-04-26T17:12:07;100480.22;;;8.59;41.47
19114;BME280;9689;51.052;13.772;2023-04-26T17:17:09;100488.97;;;8.47;42.11
19114;BME280;9689;51.052;13.772;2023-04-26T17:22:09;100489.00;;;8.46;42.37
19114;BME280;9689;51.052;13.772;2023-04-26T17:27:10;100490.75;;;8.45;43.11
19114;BME280;9689;51.052;13.772;2023-04-26T17:32:12;100495.91;;;8.52;43.32
19114;BME280;9689;51.052;13.772;2023-04-26T17:37:13;100497.59;;;8.51;42.78
19114;BME280;9689;51.052;13.772;2023-04-26T17:42:14;100498.47;;;8.50;43.47
19114;BME280;9689;51.052;13.772;2023-04-26T17:47:16;100496.78;;;8.46;43.77
19114;BME280;9689;51.052;13.772;2023-04-26T17:52:19;100506.38;;;8.38;43.56
19114;BME280;9689;51.052;13.772;2023-04-26T17:57:21;100510.72;;;8.30;43.26
19114;BME280;9689;51.052;13.772;2023-04-26T18:02:23;100513.31;;;8.31;43.76
19114;BME280;9689;51.052;13.772;2023-04-26T18:07:25;100503.84;;;8.24;43.94
19114;BME280;9689;51.052;13.772;2023-04-26T18:12:26;100512.53;;;8.20;44.23
19114;BME280;9689;51.052;13.772;2023-04-26T18:17:31;100513.47;;;8.11;44.80
19114;BME280;9689;51.052;13.772;2023-04-26T18:22:32;100525.53;;;8.18;44.96
19114;BME280;9689;51.052;13.772;2023-04-26T18:27:33;100523.88;;;8.04;45.40
19114;BME280;9689;51.052;13.772;2023-04-26T18:32:35;100531.69;;;7.99;46.15
19114;BME280;9689;51.052;13.772;2023-04-26T18:37:36;100534.34;;;7.93;47.03
19114;BME280;9689;51.052;13.772;2023-04-26T18:42:38;100529.97;;;7.97;47.23
19114;BME280;9689;51.052;13.772;2023-04-26T18:47:40;100544.69;;;7.96;46.86
19114;BME280;9689;51.052;13.772;2023-04-26T18:52:41;100553.38;;;7.93;47.59
19114;BME280;9689;51.052;13.772;2023-04-26T18:57:41;100549.06;;;7.92;47.59
19114;BME280;9689;51.052;13.772;2023-04-26T19:02:44;100552.53;;;7.87;47.84
19114;BME280;9689;51.052;13.772;2023-04-26T19:07:45;100554.25;;;7.92;48.04
19114;BME280;9689;51.052;13.772;2023-04-26T19:12:46;100563.75;;;7.92;48.03
19114;BME280;9689;51.052;13.772;2023-04-26T19:17:48;100564.63;;;7.89;47.84
19114;BME280;9689;51.052;13.772;2023-04-26T19:22:49;100562.06;;;7.79;48.82
19114;BME280;9689;51.052;13.772;2023-04-26T19:27:49;100563.78;;;7.80;48.37
19114;BME280;9689;51.052;13.772;2023-04-26T19:32:52;100570.78;;;7.73;49.00
19114;BME280;9689;51.052;13.772;2023-04-26T19:37:52;100563.00;;;7.64;49.07
19114;BME280;9689;51.052;13.772;2023-04-26T19:42:53;100569.94;;;7.60;49.30
19114;BME280;9689;51.052;13.772;2023-04-26T19:47:55;100575.16;;;7.50;50.54
19114;BME280;9689;51.052;13.772;2023-04-26T19:52:56;100580.34;;;7.45;50.36
19114;BME280;9689;51.052;13.772;2023-04-26T19:57:57;100585.56;;;7.39;50.66
19114;BME280;9689;51.052;13.772;2023-04-26T20:03:00;100589.03;;;7.29;51.39
19114;BME280;9689;51.052;13.772;2023-04-26T20:08:01;100582.16;;;7.11;51.84
19114;BME280;9689;51.052;13.772;2023-04-26T20:13:02;100581.31;;;7.00;53.47
19114;BME280;9689;51.052;13.772;2023-04-26T20:18:04;100577.88;;;6.87;54.09
19114;BME280;9689;51.052;13.772;2023-04-26T20:23:05;100582.19;;;6.62;55.34
19114;BME280;9689;51.052;13.772;2023-04-26T20:28:06;100578.72;;;6.57;56.05
19114;BME280;9689;51.052;13.772;2023-04-26T20:33:08;100577.00;;;6.65;55.01
19114;BME280;9689;51.052;13.772;2023-04-26T20:38:09;100574.44;;;6.61;55.66
19114;BME280;9689;51.052;13.772;2023-04-26T20:43:10;100579.56;;;6.50;57.77
19114;BME280;9689;51.052;13.772;2023-04-26T20:48:12;100576.94;;;6.22;58.24
19114;BME280;9689;51.052;13.772;2023-04-26T20:53:13;100582.13;;;6.18;59.92
19114;BME280;9689;51.052;13.772;2023-04-26T20:58:13;100581.19;;;5.96;59.15
19114;BME280;9689;51.052;13.772;2023-04-26T21:03:15;100582.00;;;5.89;61.05
19114;BME280;9689;51.052;13.772;2023-04-26T21:08:17;100574.25;;;5.84;61.62
19114;BME280;9689;51.052;13.772;2023-04-26T21:13:17;100576.75;;;5.69;61.71
19114;BME280;9689;51.052;13.772;2023-04-26T21:18:20;100573.31;;;5.70;61.90
19114;BME280;9689;51.052;13.772;2023-04-26T21:23:20;100586.16;;;5.55;63.11
19114;BME280;9689;51.052;13.772;2023-04-26T21:28:22;100595.59;;;5.44;64.19
19114;BME280;9689;51.052;13.772;2023-04-26T21:33:24;100601.50;;;5.27;64.40
19114;BME280;9689;51.052;13.772;2023-04-26T21:38:25;100608.34;;;5.16;65.70
19114;BME280;9689;51.052;13.772;2023-04-26T21:43:26;100605.69;;;5.05;66.12
19114;BME280;9689;51.052;13.772;2023-04-26T21:48:28;100614.19;;;4.94;66.69
19114;BME280;9689;51.052;13.772;2023-04-26T21:53:29;100618.47;;;4.90;66.78
19114;BME280;9689;51.052;13.772;2023-04-26T21:58:29;100626.97;;;4.77;68.01
19114;BME280;9689;51.052;13.772;2023-04-26T22:03:31;100631.16;;;4.64;68.39
19114;BME280;9689;51.052;13.772;2023-04-26T22:08:32;100631.09;;;4.57;68.92
19114;BME280;9689;51.052;13.772;2023-04-26T22:13:34;100640.44;;;4.47;69.09
19114;BME280;9689;51.052;13.772;2023-04-26T22:18:36;100640.38;;;4.41;69.77
19114;BME280;9689;51.052;13.772;2023-04-26T22:23:36;100637.69;;;4.30;70.59
19114;BME280;9689;51.052;13.772;2023-04-26T22:28:37;100646.13;;;4.15;70.61
19114;BME280;9689;51.052;13.772;2023-04-26T22:33:39;100656.34;;;4.08;71.74
19114;BME280;9689;51.052;13.772;2023-04-26T22:38:40;100659.66;;;3.96;71.99
19114;BME280;9689;51.052;13.772;2023-04-26T22:43:40;100657.81;;;3.86;72.52
19114;BME280;9689;51.052;13.772;2023-04-26T22:48:44;100663.78;;;3.83;72.38
19114;BME280;9689;51.052;13.772;2023-04-26T22:53:45;100669.72;;;3.76;72.56
19114;BME280;9689;51.052;13.772;2023-04-26T22:58:45;100665.31;;;3.69;72.67
19114;BME280;9689;51.052;13.772;2023-04-26T23:03:48;100661.75;;;3.59;72.88
19114;BME280;9689;51.052;13.772;2023-04-26T23:08:49;100677.09;;;3.52;73.63
19114;BME280;9689;51.052;13.772;2023-04-26T23:13:50;100677.81;;;3.43;73.82
19114;BME280;9689;51.052;13.772;2023-04-26T23:18:54;100680.38;;;3.40;74.33
19114;BME280;9689;51.052;13.772;2023-04-26T23:23:54;100678.56;;;3.34;74.72
19114;BME280;9689;51.052;13.772;2023-04-26T23:28:55;100675.94;;;3.31;74.62
19114;BME280;9689;51.052;13.772;2023-04-26T23:33:57;100682.72;;;3.26;75.19
19114;BME280;9689;51.052;13.772;2023-04-26T23:38:58;100683.53;;;3.22;75.11
19114;BME280;9689;51.052;13.772;2023-04-26T23:43:59;100684.28;;;3.17;75.75
19114;BME280;9689;51.052;13.772;2023-04-26T23:49:01;100683.28;;;3.07;76.32
19114;BME280;9689;51.052;13.772;2023-04-26T23:54:02;100675.44;;;3.01;76.44
19114;BME280;9689;51.052;13.772;2023-04-26T23:59:02;100666.03;;;3.03;76.48
